Time;durP1;ratioP1;P1;durP2;ratioP2;P2;SDS_P1;SDS_P2;PMS_P1;PMS_P2;Temp;Humidity;BMP_temperature;BMP_pressure;BME280_temperature;BME280_humidity;BME280_pressure;Samples;Min_cycle;Max_cycle;Signal;HPM_P1;HPM_P2
2023/08/25 00:00:47;;;;;;;10.15;4.45;;;16.20;99.90;;;;;;5053511;28;20197;-88
2023/08/25 00:03:18;;;;;;;8.82;4.72;;;16.30;99.90;;;;;;5012814;28;20197;-88
2023/08/25 00:05:49;;;;;;;7.75;4.75;;;16.40;99.90;;;;;;5032689;28;20208;-88
2023/08/25 00:08:20;;;;;;;9.63;5.10;;;16.60;99.90;;;;;;5018002;28;20220;-88
2023/08/25 00:10:50;;;;;;;9.23;4.43;;;16.70;99.90;;;;;;5033082;28;20205;-88
2023/08/25 00:13:22;;;;;;;8.10;4.78;;;16.80;99.90;;;;;;5051365;28;20552;-88
2023/08/25 00:15:57;;;;;;;9.02;4.65;;;16.90;99.90;;;;;;5022546;28;20256;-87
2023/08/25 00:18:27;;;;;;;7.95;4.80;;;17.10;99.90;;;;;;5029767;28;20743;-86
2023/08/25 00:21:00;;;;;;;12.27;4.80;;;17.20;99.90;;;;;;5031510;28;20220;-87
2023/08/25 00:23:31;;;;;;;10.10;4.85;;;17.30;99.90;;;;;;5032868;28;20272;-87
2023/08/25 00:26:02;;;;;;;7.55;4.65;;;17.40;99.90;;;;;;5040926;28;20189;-86
2023/08/25 00:28:33;;;;;;;10.77;5.13;;;17.50;99.90;;;;;;5050600;28;20627;-87
2023/08/25 00:31:06;;;;;;;9.00;5.57;;;17.60;99.90;;;;;;5045465;28;20207;-87
2023/08/25 00:33:37;;;;;;;8.43;5.10;;;17.60;99.90;;;;;;5034954;28;20212;-88
2023/08/25 00:36:08;;;;;;;8.70;5.78;;;17.70;99.90;;;;;;5034919;28;20196;-87
2023/08/25 00:38:39;;;;;;;12.95;5.85;;;17.70;99.90;;;;;;5035600;28;20678;-87
2023/08/25 00:41:10;;;;;;;8.10;5.38;;;17.80;99.90;;;;;;5035146;28;20221;-87
2023/08/25 00:43:41;;;;;;;8.73;4.47;;;18.00;99.90;;;;;;5034733;28;20197;-87
2023/08/25 00:46:15;;;;;;;9.18;5.03;;;18.10;99.90;;;;;;5029412;28;20206;-88
2023/08/25 00:48:47;;;;;;;8.77;4.72;;;18.20;99.90;;;;;;5026923;28;20210;-88
2023/08/25 00:51:19;;;;;;;8.23;4.70;;;18.30;99.90;;;;;;5015200;28;20189;-90
2023/08/25 00:53:53;;;;;;;8.73;5.07;;;18.40;99.90;;;;;;5015407;28;20202;-88
2023/08/25 00:56:25;;;;;;;8.82;5.13;;;18.40;99.90;;;;;;5024291;28;20221;-89
2023/08/25 00:58:56;;;;;;;6.78;4.30;;;18.50;99.90;;;;;;5018496;28;20196;-89
2023/08/25 01:01:32;;;;;;;10.38;4.47;;;18.70;99.90;;;;;;5027884;28;20202;-90
2023/08/25 01:04:03;;;;;;;6.20;3.60;;;18.80;99.90;;;;;;5033802;28;20227;-89
2023/08/25 01:06:34;;;;;;;9.25;3.70;;;18.80;99.90;;;;;;5038098;28;20577;-89
2023/08/25 01:09:06;;;;;;;7.22;3.55;;;18.90;99.90;;;;;;5020538;28;20243;-88
2023/08/25 01:11:44;;;;;;;7.22;3.33;;;19.00;99.90;;;;;;5040306;28;20220;-85
2023/08/25 01:14:30;;;;;;;6.65;2.95;;;19.10;99.90;;;;;;5040749;28;20634;-85
2023/08/25 01:17:11;;;;;;;5.45;3.05;;;19.20;99.90;;;;;;5018907;28;20297;-85
2023/08/25 01:20:00;;;;;;;4.82;2.60;;;19.40;99.90;;;;;;5047521;28;20221;-89
2023/08/25 01:22:47;;;;;;;5.75;2.08;;;19.50;99.90;;;;;;5037415;28;20198;-90
2023/08/25 01:25:35;;;;;;;3.28;1.90;;;19.50;99.90;;;;;;5036421;28;20190;-89
2023/08/25 01:28:08;;;;;;;2.35;1.50;;;19.60;99.90;;;;;;5035592;28;20213;-90
2023/08/25 01:30:39;;;;;;;2.83;1.02;;;19.70;99.90;;;;;;5031077;28;20236;-88
2023/08/25 01:33:10;;;;;;;3.45;1.30;;;19.70;99.90;;;;;;5017933;28;20216;-87
2023/08/25 01:35:54;;;;;;;2.15;1.00;;;19.90;98.00;;;;;;5022597;28;20229;-86
2023/08/25 01:38:31;;;;;;;2.95;1.02;;;20.00;95.60;;;;;;5023314;28;20690;-88
2023/08/25 01:41:10;;;;;;;2.78;1.30;;;20.10;93.60;;;;;;5035125;28;20216;-89
2023/08/25 01:43:43;;;;;;;2.60;1.40;;;20.30;92.80;;;;;;5021351;28;20201;-88
2023/08/25 01:46:16;;;;;;;2.75;1.27;;;20.40;92.30;;;;;;5025822;28;20201;-88
2023/08/25 01:48:51;;;;;;;3.08;1.40;;;20.50;90.80;;;;;;5028990;28;20201;-89
2023/08/25 01:51:22;;;;;;;2.45;1.20;;;20.50;90.10;;;;;;5036617;28;20283;-89
2023/08/25 01:53:56;;;;;;;1.50;1.10;;;20.50;87.90;;;;;;5035479;28;20197;-89
2023/08/25 01:56:29;;;;;;;5.32;2.50;;;20.60;79.50;;;;;;5017184;28;20204;-88
2023/08/25 01:59:00;;;;;;;1.25;0.98;;;20.70;80.90;;;;;;5032831;28;20201;-88
2023/08/25 02:01:32;;;;;;;1.58;0.63;;;20.80;81.20;;;;;;5035239;28;20240;-88
2023/08/25 02:04:02;;;;;;;1.85;0.80;;;20.80;79.70;;;;;;5034814;28;20197;-88
2023/08/25 02:06:33;;;;;;;0.52;0.52;;;20.90;75.60;;;;;;5036909;28;20185;-88
2023/08/25 02:09:04;;;;;;;0.93;0.57;;;20.90;72.70;;;;;;5047086;28;20287;-88
2023/08/25 02:11:41;;;;;;;0.63;0.63;;;21.00;72.10;;;;;;5035254;28;20197;-91
2023/08/25 02:14:13;;;;;;;1.25;0.70;;;21.00;72.90;;;;;;5043919;28;20207;-91
2023/08/25 02:16:44;;;;;;;1.95;0.70;;;21.00;73.30;;;;;;5048160;28;20312;-90
2023/08/25 02:19:18;;;;;;;1.15;0.68;;;21.00;72.90;;;;;;5036708;28;20667;-89
2023/08/25 02:21:50;;;;;;;1.38;1.10;;;21.10;71.10;;;;;;5036994;28;20205;-91
2023/08/25 02:24:20;;;;;;;2.15;0.80;;;21.20;71.40;;;;;;5035052;28;20201;-92
2023/08/25 02:26:53;;;;;;;1.33;0.85;;;21.20;73.50;;;;;;5037054;28;20189;-90
2023/08/25 02:29:25;;;;;;;0.73;0.50;;;21.30;74.80;;;;;;5039493;28;20232;-90
2023/08/25 02:31:58;;;;;;;2.75;0.65;;;21.40;74.20;;;;;;5032805;28;20671;-90
2023/08/25 02:34:33;;;;;;;2.97;1.10;;;21.40;74.20;;;;;;5018525;28;20219;-90
2023/08/25 02:37:06;;;;;;;0.85;0.60;;;21.40;72.90;;;;;;5034542;28;20581;-92
2023/08/25 02:39:37;;;;;;;1.00;0.55;;;21.50;72.90;;;;;;5036072;28;20204;-92
2023/08/25 02:42:12;;;;;;;0.82;0.70;;;21.60;72.80;;;;;;5027785;28;20228;-91
2023/08/25 02:44:44;;;;;;;1.35;0.70;;;21.60;71.70;;;;;;5037996;28;20211;-92
2023/08/25 02:47:16;;;;;;;1.48;1.02;;;21.60;69.00;;;;;;5045387;28;20205;-92
2023/08/25 02:49:48;;;;;;;0.70;0.70;;;21.70;68.80;;;;;;5016552;28;20264;-92
2023/08/25 02:52:20;;;;;;;0.95;0.73;;;21.70;70.50;;;;;;5000320;28;20245;-90
2023/08/25 02:54:52;;;;;;;1.00;0.60;;;21.80;71.40;;;;;;5018730;28;20198;-91
2023/08/25 02:57:26;;;;;;;1.27;0.70;;;21.80;71.20;;;;;;5018853;28;20213;-89
2023/08/25 02:59:57;;;;;;;0.40;0.40;;;21.90;69.30;;;;;;5015104;28;20217;-91
2023/08/25 03:05:15;;;;;;;1.50;0.60;;;22.00;67.10;;;;;;5037590;28;20197;-90
2023/08/25 03:07:47;;;;;;;2.03;0.88;;;22.00;62.60;;;;;;5032980;28;20196;-89
2023/08/25 03:10:18;;;;;;;0.68;0.50;;;22.10;62.70;;;;;;5020936;28;20209;-87
2023/08/25 03:12:52;;;;;;;0.55;0.45;;;22.10;62.60;;;;;;5042919;28;20730;-90
2023/08/25 03:15:23;;;;;;;0.93;0.45;;;22.00;62.00;;;;;;5017049;28;20269;-89
2023/08/25 03:17:53;;;;;;;1.95;0.60;;;21.80;63.10;;;;;;5052585;28;20196;-89
2023/08/25 03:20:26;;;;;;;0.73;0.60;;;21.90;63.20;;;;;;5055933;28;20220;-90
2023/08/25 03:22:58;;;;;;;0.85;0.70;;;22.00;63.80;;;;;;5036770;28;20614;-91
2023/08/25 03:25:29;;;;;;;1.00;0.90;;;22.10;61.20;;;;;;5054213;28;20216;-91
2023/08/25 03:28:04;;;;;;;1.17;0.60;;;22.10;64.20;;;;;;5023119;28;20201;-89
2023/08/25 03:30:35;;;;;;;2.45;0.70;;;22.20;66.20;;;;;;5021336;28;20251;-87
2023/08/25 03:33:06;;;;;;;1.25;0.60;;;22.30;67.20;;;;;;5056660;28;20196;-87
2023/08/25 03:35:38;;;;;;;0.95;0.80;;;22.40;66.40;;;;;;5056345;28;20591;-88
2023/08/25 03:38:08;;;;;;;4.18;1.50;;;22.40;66.50;;;;;;5053436;28;20205;-88
2023/08/25 03:40:39;;;;;;;0.95;0.70;;;22.30;69.90;;;;;;5056317;28;20193;-88
2023/08/25 03:43:13;;;;;;;2.58;0.90;;;22.20;69.60;;;;;;5035532;28;20610;-87
2023/08/25 03:45:44;;;;;;;1.88;0.82;;;22.10;70.80;;;;;;5046881;28;20209;-89
2023/08/25 03:48:16;;;;;;;2.67;1.10;;;22.10;72.90;;;;;;5046600;28;20517;-89
2023/08/25 03:50:50;;;;;;;2.08;1.20;;;22.20;74.00;;;;;;5048668;28;20228;-89
2023/08/25 03:53:21;;;;;;;3.75;1.17;;;22.20;73.60;;;;;;5050609;28;20210;-88
2023/08/25 03:55:53;;;;;;;2.88;1.00;;;22.10;74.20;;;;;;5051556;28;20207;-87
2023/08/25 03:58:28;;;;;;;2.13;0.80;;;22.10;76.10;;;;;;5050835;28;20732;-88
2023/08/25 04:00:59;;;;;;;2.75;0.80;;;22.00;76.40;;;;;;5037568;28;20236;-89
2023/08/25 04:03:30;;;;;;;5.38;1.00;;;22.00;75.00;;;;;;5053063;28;20674;-88
2023/08/25 04:06:01;;;;;;;1.90;0.80;;;21.90;75.40;;;;;;5057752;28;20711;-87
2023/08/25 04:08:32;;;;;;;3.90;0.70;;;21.80;74.90;;;;;;5058564;28;20204;-88
2023/08/25 04:11:04;;;;;;;2.22;1.00;;;21.80;75.90;;;;;;5041169;28;20227;-88
2023/08/25 04:13:39;;;;;;;3.50;0.88;;;21.70;77.60;;;;;;5059057;28;20213;-88
2023/08/25 04:16:10;;;;;;;1.65;0.80;;;21.60;78.50;;;;;;5078136;28;20235;-86
2023/08/25 04:18:44;;;;;;;1.17;0.85;;;21.60;81.30;;;;;;5042846;28;20209;-88
2023/08/25 04:21:15;;;;;;;2.80;1.08;;;21.40;86.70;;;;;;5044806;28;20201;-89
2023/08/25 04:23:46;;;;;;;4.35;1.00;;;21.40;90.00;;;;;;5055410;28;20207;-89
2023/08/25 04:26:17;;;;;;;1.80;0.90;;;21.40;91.50;;;;;;5037603;28;20211;-87
2023/08/25 04:28:50;;;;;;;3.03;0.88;;;21.40;93.20;;;;;;5035280;28;20217;-89
2023/08/25 04:31:20;;;;;;;4.55;0.80;;;21.40;95.00;;;;;;5036148;28;20225;-89
2023/08/25 04:33:51;;;;;;;5.05;1.23;;;21.20;95.80;;;;;;5054428;28;20572;-88
2023/08/25 04:36:22;;;;;;;1.83;0.88;;;21.20;97.20;;;;;;5054773;28;20695;-89
2023/08/25 04:38:53;;;;;;;2.53;0.98;;;21.20;96.50;;;;;;5055454;28;20201;-89
2023/08/25 04:41:23;;;;;;;1.67;0.80;;;21.10;97.40;;;;;;5056810;28;20208;-88
2023/08/25 04:43:56;;;;;;;2.10;0.95;;;21.00;98.00;;;;;;5037553;28;20569;-89
2023/08/25 04:46:28;;;;;;;2.38;0.88;;;21.00;98.30;;;;;;5052321;28;20197;-88
2023/08/25 04:48:59;;;;;;;2.15;0.93;;;20.90;97.60;;;;;;5057949;28;20208;-86
2023/08/25 04:51:31;;;;;;;2.20;1.10;;;20.80;98.20;;;;;;5055023;28;20256;-86
2023/08/25 04:54:02;;;;;;;3.28;0.90;;;20.70;98.60;;;;;;5056039;28;20208;-86
2023/08/25 04:56:33;;;;;;;3.92;1.00;;;20.70;99.40;;;;;;5053944;28;20634;-86
2023/08/25 04:59:06;;;;;;;0.90;0.70;;;20.70;99.90;;;;;;5053784;28;20600;-88
2023/08/25 05:01:37;;;;;;;3.17;1.10;;;20.60;99.90;;;;;;5054131;28;20292;-87
2023/08/25 05:04:08;;;;;;;1.35;0.90;;;20.60;99.90;;;;;;5055768;28;20745;-87
2023/08/25 05:06:39;;;;;;;1.73;0.70;;;20.60;99.90;;;;;;5057088;28;20197;-87
2023/08/25 05:09:15;;;;;;;1.58;0.85;;;20.60;99.90;;;;;;5072711;28;20208;-87
2023/08/25 05:11:46;;;;;;;3.75;1.10;;;20.60;99.90;;;;;;5067889;28;20251;-91
2023/08/25 05:14:28;;;;;;;3.88;0.90;;;20.60;99.90;;;;;;5060886;28;20249;-92
2023/08/25 05:17:00;;;;;;;1.83;0.85;;;20.60;99.90;;;;;;5075640;28;20201;-91
2023/08/25 05:19:31;;;;;;;4.15;0.90;;;20.50;99.90;;;;;;5060779;28;20248;-91
2023/08/25 05:22:03;;;;;;;3.00;0.85;;;20.60;99.90;;;;;;5060240;28;20204;-87
2023/08/25 05:24:36;;;;;;;3.30;1.10;;;20.60;99.90;;;;;;5057482;28;20212;-90
2023/08/25 05:27:06;;;;;;;2.42;1.02;;;20.60;99.90;;;;;;5058146;28;20193;-90
2023/08/25 05:29:43;;;;;;;2.38;1.10;;;20.70;99.90;;;;;;5069487;28;20188;-91
2023/08/25 05:32:14;;;;;;;2.05;1.00;;;20.60;99.90;;;;;;5060658;28;20262;-90
2023/08/25 05:34:45;;;;;;;4.20;1.20;;;20.60;99.90;;;;;;5057116;28;20201;-91
2023/08/25 05:37:18;;;;;;;2.80;1.10;;;20.70;99.90;;;;;;5058533;28;20252;-91
2023/08/25 05:39:49;;;;;;;2.80;1.00;;;20.70;99.90;;;;;;5057536;28;20199;-89
2023/08/25 05:42:20;;;;;;;2.42;0.90;;;20.80;99.90;;;;;;5055527;28;20204;-90
2023/08/25 05:44:56;;;;;;;3.10;0.90;;;20.70;99.90;;;;;;5054905;28;20200;-90
2023/08/25 05:50:22;;;;;;;3.75;1.10;;;20.70;99.90;;;;;;5054226;28;20774;-88
2023/08/25 05:53:03;;;;;;;2.95;1.00;;;20.60;99.90;;;;;;5057571;28;20209;-92
2023/08/25 05:55:35;;;;;;;4.32;0.80;;;20.70;99.90;;;;;;5062240;28;20207;-93
2023/08/25 05:58:06;;;;;;;3.90;1.20;;;20.60;99.90;;;;;;5061144;28;20201;-93
2023/08/25 06:03:40;;;;;;;6.03;1.20;;;20.60;99.90;;;;;;5064820;28;20572;-92
2023/08/25 06:06:12;;;;;;;2.20;0.93;;;20.80;99.90;;;;;;5054248;28;20193;-93
2023/08/25 06:08:43;;;;;;;3.88;1.17;;;20.70;99.90;;;;;;5040387;28;20211;-92
2023/08/25 06:11:14;;;;;;;5.10;1.10;;;20.70;99.90;;;;;;5047672;28;20311;-91
2023/08/25 06:13:47;;;;;;;2.00;1.10;;;20.80;99.90;;;;;;5054336;28;20196;-93
2023/08/25 06:16:20;;;;;;;2.55;1.05;;;20.70;99.90;;;;;;5054013;28;20731;-93
2023/08/25 06:18:54;;;;;;;2.67;0.90;;;20.60;99.90;;;;;;5051588;28;20205;-91
2023/08/25 06:21:29;;;;;;;2.40;1.10;;;20.70;99.90;;;;;;5056738;28;20208;-95
2023/08/25 06:24:05;;;;;;;3.25;1.10;;;20.70;99.90;;;;;;5077512;28;20203;-92
2023/08/25 06:26:36;;;;;;;3.00;1.08;;;20.80;99.90;;;;;;5052919;28;20656;-91
2023/08/25 06:29:07;;;;;;;4.40;1.30;;;21.00;99.90;;;;;;5081380;28;20275;-94
2023/08/25 06:31:41;;;;;;;3.88;1.00;;;21.10;99.90;;;;;;5079406;28;20236;-94
2023/08/25 06:34:13;;;;;;;2.55;0.95;;;21.10;99.90;;;;;;5058971;28;20200;-94
2023/08/25 06:36:48;;;;;;;3.35;1.20;;;21.10;99.90;;;;;;5060469;28;20283;-94
2023/08/25 06:39:22;;;;;;;3.65;1.13;;;21.20;99.90;;;;;;5075020;28;20256;-95
2023/08/25 06:41:56;;;;;;;2.85;0.98;;;21.10;99.90;;;;;;5068454;28;20646;-94
2023/08/25 06:44:32;;;;;;;3.65;1.08;;;21.20;99.90;;;;;;5060493;28;20200;-94
2023/08/25 06:47:06;;;;;;;2.92;1.17;;;21.10;99.90;;;;;;5059372;28;20201;-94
2023/08/25 06:49:43;;;;;;;2.05;0.90;;;21.00;99.90;;;;;;5042648;28;20196;-95
2023/08/25 06:52:16;;;;;;;1.95;0.93;;;20.90;99.90;;;;;;5061163;28;20323;-95
2023/08/25 06:54:47;;;;;;;2.13;0.90;;;20.70;99.90;;;;;;5063297;28;20204;-95
2023/08/25 07:00:01;;;;;;;4.82;1.17;;;20.40;99.90;;;;;;5069122;28;20204;-94
2023/08/25 07:02:53;;;;;;;2.30;1.05;;;20.20;99.90;;;;;;5060148;28;20271;-95
2023/08/25 07:05:25;;;;;;;2.67;1.30;;;20.10;99.90;;;;;;5057127;28;20235;-94
2023/08/25 07:08:01;;;;;;;2.45;1.27;;;20.00;99.90;;;;;;5058076;28;20203;-92
2023/08/25 07:10:33;;;;;;;3.10;1.10;;;19.90;99.90;;;;;;5042615;28;20733;-93
2023/08/25 07:13:05;;;;;;;3.80;1.13;;;19.80;99.90;;;;;;5035424;28;20205;-94
2023/08/25 07:15:59;;;;;;;3.47;1.35;;;19.70;99.90;;;;;;5050317;28;20250;-95
2023/08/25 07:18:34;;;;;;;4.28;1.15;;;19.60;99.90;;;;;;5057845;28;20255;-93
2023/08/25 07:21:11;;;;;;;3.58;1.10;;;19.60;99.90;;;;;;5065770;28;20204;-94
2023/08/25 07:23:43;;;;;;;2.83;1.20;;;19.50;99.90;;;;;;5058730;28;20264;-94
2023/08/25 07:26:16;;;;;;;2.45;1.23;;;19.50;99.90;;;;;;5075681;28;20219;-95
2023/08/25 07:28:49;;;;;;;3.20;1.10;;;19.40;99.90;;;;;;5060034;28;20545;-95
2023/08/25 07:31:22;;;;;;;3.33;1.30;;;19.30;99.90;;;;;;5061808;28;20217;-92
2023/08/25 07:33:55;;;;;;;5.20;1.35;;;19.20;99.90;;;;;;5064618;28;20207;-89
2023/08/25 07:36:28;;;;;;;3.55;1.27;;;19.10;99.90;;;;;;5078368;28;20188;-90
2023/08/25 07:39:00;;;;;;;2.03;0.95;;;19.10;99.90;;;;;;5068627;28;20196;-90
2023/08/25 07:41:31;;;;;;;3.88;1.15;;;19.00;99.90;;;;;;5056444;28;20235;-89
2023/08/25 07:44:02;;;;;;;2.33;1.10;;;18.90;99.90;;;;;;5060458;28;20307;-88
2023/08/25 07:46:37;;;;;;;5.55;1.50;;;18.90;99.90;;;;;;5058786;28;20200;-90
2023/08/25 07:49:11;;;;;;;2.47;1.33;;;18.80;99.90;;;;;;5057644;28;20283;-89
2023/08/25 07:51:42;;;;;;;3.70;1.20;;;18.80;99.90;;;;;;5059083;28;20236;-88
2023/08/25 07:54:13;;;;;;;3.65;1.40;;;18.80;99.90;;;;;;5059646;28;20219;-89
2023/08/25 07:56:44;;;;;;;5.28;2.00;;;18.80;99.90;;;;;;5060761;28;20189;-89
2023/08/25 07:59:15;;;;;;;1.67;1.17;;;18.70;99.90;;;;;;5059963;28;20232;-88
2023/08/25 08:01:46;;;;;;;3.30;1.33;;;18.60;99.90;;;;;;5060686;28;20200;-88
2023/08/25 08:04:21;;;;;;;8.23;1.42;;;18.60;99.90;;;;;;5059538;28;20250;-89
2023/08/25 08:06:55;;;;;;;4.43;1.50;;;18.50;99.90;;;;;;5042705;28;20369;-93
2023/08/25 08:09:26;;;;;;;5.10;1.60;;;18.40;99.90;;;;;;5040232;28;20220;-89
2023/08/25 08:11:57;;;;;;;4.57;1.52;;;18.40;99.90;;;;;;5053571;28;20255;-93
2023/08/25 08:14:28;;;;;;;2.20;1.27;;;18.40;99.90;;;;;;5043441;28;20201;-93
2023/08/25 08:17:05;;;;;;;3.63;1.45;;;18.30;99.90;;;;;;5046753;28;20260;-91
2023/08/25 08:19:39;;;;;;;5.88;1.30;;;18.30;99.90;;;;;;5058199;28;20254;-92
2023/08/25 08:22:10;;;;;;;3.63;1.50;;;18.30;99.90;;;;;;5042522;28;20291;-92
2023/08/25 08:24:41;;;;;;;3.97;1.40;;;18.20;99.90;;;;;;5061914;28;20201;-93
2023/08/25 08:27:12;;;;;;;5.32;1.48;;;18.20;99.90;;;;;;5059342;28;20644;-92
2023/08/25 08:29:46;;;;;;;4.38;1.20;;;18.10;99.90;;;;;;5065223;28;20176;-86
2023/08/25 08:32:18;;;;;;;2.60;1.33;;;18.20;99.90;;;;;;5071481;28;20246;-92
2023/08/25 08:34:56;;;;;;;2.13;1.23;;;18.20;99.90;;;;;;5068381;28;20295;-90
2023/08/25 08:37:27;;;;;;;5.53;1.60;;;18.10;99.90;;;;;;5057648;28;20556;-88
2023/08/25 08:39:58;;;;;;;3.13;1.45;;;18.20;99.90;;;;;;5038252;28;20208;-88
2023/08/25 08:42:30;;;;;;;4.22;1.50;;;18.10;99.90;;;;;;5054679;28;20232;-89
2023/08/25 08:45:05;;;;;;;3.47;1.40;;;18.10;99.90;;;;;;5051910;28;20201;-90
2023/08/25 08:47:36;;;;;;;4.40;1.88;;;18.10;99.90;;;;;;5057518;28;20283;-88
2023/08/25 08:50:12;;;;;;;4.15;1.60;;;18.10;99.90;;;;;;5058378;28;20193;-90
2023/08/25 08:52:44;;;;;;;6.00;1.77;;;18.10;99.90;;;;;;5057374;28;20224;-91
2023/08/25 08:55:16;;;;;;;3.35;1.60;;;18.00;99.90;;;;;;5057296;28;20203;-90
2023/08/25 08:57:47;;;;;;;2.03;1.20;;;18.00;99.90;;;;;;5057667;28;20451;-89
2023/08/25 09:00:19;;;;;;;3.80;1.50;;;18.00;99.90;;;;;;5049737;28;20207;-91
2023/08/25 09:02:53;;;;;;;6.82;1.58;;;18.00;99.90;;;;;;5053345;28;20237;-91
2023/08/25 09:05:34;;;;;;;4.03;1.70;;;18.00;99.90;;;;;;5056895;28;20196;-89
2023/08/25 09:08:10;;;;;;;5.85;1.60;;;18.00;99.90;;;;;;5056061;28;20258;-88
2023/08/25 09:10:41;;;;;;;3.20;1.50;;;18.00;99.90;;;;;;5061295;28;20184;-88
2023/08/25 09:13:12;;;;;;;3.42;1.50;;;17.90;99.90;;;;;;5072513;28;20288;-91
2023/08/25 09:15:44;;;;;;;3.78;1.65;;;17.90;99.90;;;;;;5066972;28;20240;-92
2023/08/25 09:18:17;;;;;;;2.00;1.48;;;17.90;99.90;;;;;;5066819;28;20213;-90
2023/08/25 09:20:49;;;;;;;3.28;1.80;;;17.90;99.90;;;;;;5067894;28;20578;-88
2023/08/25 09:23:20;;;;;;;5.18;2.20;;;17.90;99.90;;;;;;5056493;28;20192;-89
2023/08/25 09:25:53;;;;;;;3.03;1.92;;;17.90;99.90;;;;;;5059391;28;20203;-89
2023/08/25 09:28:27;;;;;;;2.75;1.80;;;17.90;99.90;;;;;;5048423;28;20192;-89
2023/08/25 09:30:59;;;;;;;2.90;1.73;;;17.80;99.90;;;;;;5055697;28;20196;-88
2023/08/25 09:33:30;;;;;;;4.85;2.13;;;17.80;99.90;;;;;;5059814;28;20180;-88
2023/08/25 09:36:06;;;;;;;4.35;1.95;;;17.80;99.90;;;;;;5062049;28;20265;-88
2023/08/25 09:38:37;;;;;;;5.47;1.60;;;17.80;99.90;;;;;;5054837;28;20204;-88
2023/08/25 09:41:08;;;;;;;3.28;1.60;;;17.80;99.90;;;;;;5053194;28;20196;-88
2023/08/25 09:43:40;;;;;;;5.38;1.83;;;17.80;99.90;;;;;;5053962;28;20280;-88
2023/08/25 09:46:13;;;;;;;2.65;1.65;;;17.70;99.90;;;;;;5034985;28;20208;-88
2023/08/25 09:48:48;;;;;;;3.58;1.63;;;17.80;99.90;;;;;;5049244;28;20200;-87
2023/08/25 09:51:24;;;;;;;3.72;1.65;;;17.70;99.90;;;;;;5044248;28;20256;-89
2023/08/25 09:53:55;;;;;;;4.20;1.80;;;17.70;99.90;;;;;;5053809;28;20676;-88
2023/08/25 09:56:25;;;;;;;2.85;1.52;;;17.70;99.90;;;;;;5056460;28;20276;-89
2023/08/25 09:58:57;;;;;;;2.20;1.48;;;17.70;99.90;;;;;;5067813;28;20223;-89
2023/08/25 10:01:28;;;;;;;2.95;1.63;;;17.70;99.90;;;;;;5071164;28;20204;-89
2023/08/25 10:04:00;;;;;;;2.95;1.60;;;17.60;99.90;;;;;;5062858;28;20732;-89
2023/08/25 10:06:34;;;;;;;5.20;1.90;;;17.60;99.90;;;;;;5055483;28;20200;-88
2023/08/25 10:09:06;;;;;;;3.53;2.20;;;17.60;99.90;;;;;;5053099;28;20279;-88
2023/08/25 10:11:40;;;;;;;3.17;2.17;;;17.60;99.90;;;;;;5052707;28;20307;-89
2023/08/25 10:14:12;;;;;;;5.93;2.10;;;17.50;99.90;;;;;;5053651;28;20507;-88
2023/08/25 10:16:47;;;;;;;4.75;2.30;;;17.50;99.90;;;;;;5051123;28;20232;-89
2023/08/25 10:19:23;;;;;;;5.07;2.03;;;17.50;99.90;;;;;;5052380;28;20638;-89
2023/08/25 10:21:57;;;;;;;4.78;2.08;;;17.50;99.90;;;;;;5053763;28;20279;-88
2023/08/25 10:24:29;;;;;;;4.60;1.90;;;17.40;99.90;;;;;;5055457;28;20270;-86
2023/08/25 10:27:01;;;;;;;5.72;2.40;;;17.40;99.90;;;;;;5053687;28;20250;-88
2023/08/25 10:29:33;;;;;;;3.85;2.33;;;17.30;99.90;;;;;;5054845;28;20196;-88
2023/08/25 10:32:05;;;;;;;6.55;2.60;;;17.40;99.90;;;;;;5050462;28;20224;-87
2023/08/25 10:34:38;;;;;;;4.57;2.50;;;17.40;99.90;;;;;;5035095;28;20198;-87
2023/08/25 10:37:15;;;;;;;4.80;2.47;;;17.40;99.90;;;;;;5064100;28;20256;-81
2023/08/25 10:39:52;;;;;;;4.82;2.17;;;17.40;99.90;;;;;;5072014;28;20192;-90
2023/08/25 10:42:25;;;;;;;3.80;2.20;;;17.40;99.90;;;;;;5054741;28;20223;-89
2023/08/25 10:45:03;;;;;;;6.38;2.83;;;17.30;99.90;;;;;;5051551;28;20200;-88
2023/08/25 10:47:34;;;;;;;4.03;2.25;;;17.30;99.90;;;;;;5051855;28;20197;-89
2023/08/25 10:50:08;;;;;;;5.53;2.92;;;17.30;99.90;;;;;;5051881;28;20223;-89
2023/08/25 10:52:45;;;;;;;5.10;3.03;;;17.20;99.90;;;;;;5039337;28;20232;-88
2023/08/25 10:55:32;;;;;;;6.03;3.25;;;17.20;99.90;;;;;;5052137;28;20609;-90
2023/08/25 10:58:06;;;;;;;4.40;3.13;;;17.10;99.90;;;;;;5052262;28;20710;-90
2023/08/25 11:00:43;;;;;;;7.30;3.90;;;17.10;99.90;;;;;;5053267;28;20248;-90
2023/08/25 11:03:15;;;;;;;5.95;3.72;;;17.10;99.90;;;;;;5051787;28;20200;-90
2023/08/25 11:05:46;;;;;;;5.20;3.58;;;17.10;99.90;;;;;;5052504;28;20196;-90
2023/08/25 11:08:32;;;;;;;6.20;4.13;;;17.10;99.90;;;;;;5052394;28;20192;-92
2023/08/25 11:11:18;;;;;;;6.68;3.53;;;17.10;99.90;;;;;;5054208;28;20232;-89
2023/08/25 11:13:49;;;;;;;6.43;3.92;;;17.10;99.90;;;;;;5062812;28;20235;-89
2023/08/25 11:16:20;;;;;;;6.53;4.00;;;17.10;99.90;;;;;;5062146;28;20279;-89
2023/08/25 11:18:51;;;;;;;8.00;3.85;;;17.10;99.90;;;;;;5051104;28;20219;-89
2023/08/25 11:21:26;;;;;;;6.30;3.55;;;17.10;99.90;;;;;;5053715;28;20199;-90
2023/08/25 11:24:01;;;;;;;5.07;3.05;;;17.20;99.90;;;;;;5052653;28;20679;-90
2023/08/25 11:26:34;;;;;;;7.47;3.60;;;17.20;99.90;;;;;;5052631;28;20283;-90
2023/08/25 11:29:05;;;;;;;5.20;3.28;;;17.20;99.90;;;;;;5053073;28;20200;-90
2023/08/25 11:31:37;;;;;;;6.00;3.88;;;17.20;99.90;;;;;;5051202;28;20400;-88
2023/08/25 11:34:08;;;;;;;7.00;3.45;;;17.20;99.90;;;;;;5050203;28;20196;-89
2023/08/25 11:36:39;;;;;;;8.00;3.70;;;17.20;99.90;;;;;;5052470;28;20280;-89
2023/08/25 11:39:19;;;;;;;6.82;3.58;;;17.20;99.90;;;;;;5051794;28;20656;-89
2023/08/25 11:41:50;;;;;;;6.13;3.47;;;17.10;99.90;;;;;;5063519;28;20184;-90
2023/08/25 11:44:20;;;;;;;6.60;3.95;;;17.10;99.90;;;;;;5065791;28;20276;-88
2023/08/25 11:46:51;;;;;;;6.30;3.88;;;17.10;99.90;;;;;;5051812;28;20201;-89
2023/08/25 11:49:23;;;;;;;6.50;3.90;;;17.10;99.90;;;;;;5050136;28;20196;-90
2023/08/25 11:52:03;;;;;;;7.50;4.00;;;17.10;99.90;;;;;;5051557;28;20647;-91
2023/08/25 11:54:49;;;;;;;5.93;3.83;;;17.10;99.90;;;;;;5051641;28;20220;-90
2023/08/25 11:57:22;;;;;;;8.25;3.92;;;17.00;99.90;;;;;;5024806;28;20192;-91
2023/08/25 11:59:53;;;;;;;4.78;3.53;;;17.00;99.90;;;;;;5064099;28;20204;-89
2023/08/25 12:02:24;;;;;;;6.82;3.78;;;16.90;99.90;;;;;;5050377;28;20224;-88
2023/08/25 12:04:58;;;;;;;7.80;3.83;;;16.90;99.90;;;;;;5052862;28;20197;-90
2023/08/25 12:07:30;;;;;;;6.05;3.85;;;16.80;99.90;;;;;;5055368;28;20304;-90
2023/08/25 12:10:08;;;;;;;7.35;4.18;;;16.80;99.90;;;;;;5052608;28;20220;-91
2023/08/25 12:12:45;;;;;;;5.70;3.65;;;16.70;99.90;;;;;;5052632;28;20224;-91
2023/08/25 12:15:19;;;;;;;5.97;4.00;;;16.70;99.90;;;;;;5058787;28;20208;-90
2023/08/25 12:17:51;;;;;;;4.30;3.47;;;16.60;99.90;;;;;;5058452;28;20656;-90
2023/08/25 12:20:23;;;;;;;7.75;4.18;;;16.60;99.90;;;;;;5050255;28;20197;-90
2023/08/25 12:22:56;;;;;;;6.25;3.67;;;16.60;99.90;;;;;;5072763;28;20228;-91
2023/08/25 12:25:30;;;;;;;9.90;4.55;;;16.60;99.90;;;;;;5074686;28;20189;-88
2023/08/25 12:28:00;;;;;;;5.32;3.65;;;16.60;99.90;;;;;;5072077;28;20196;-89
2023/08/25 12:30:32;;;;;;;5.80;4.03;;;16.50;99.90;;;;;;5062401;28;20200;-90
2023/08/25 12:33:04;;;;;;;6.60;3.95;;;16.50;99.90;;;;;;5055521;28;20702;-90
2023/08/25 12:35:37;;;;;;;7.47;4.20;;;16.50;99.90;;;;;;5057603;28;20240;-89
2023/08/25 12:38:09;;;;;;;6.00;4.13;;;16.50;99.90;;;;;;5059310;28;20209;-91
2023/08/25 12:40:42;;;;;;;7.38;4.20;;;16.40;99.90;;;;;;5057534;28;20687;-90
2023/08/25 12:43:14;;;;;;;5.70;4.10;;;16.30;99.90;;;;;;5057518;28;20548;-92
2023/08/25 12:45:46;;;;;;;5.90;4.10;;;16.40;99.90;;;;;;5073000;28;20248;-91
2023/08/25 12:48:17;;;;;;;6.10;3.80;;;16.40;99.90;;;;;;5076989;28;20220;-90
2023/08/25 12:50:48;;;;;;;6.70;4.30;;;16.30;99.90;;;;;;5041384;28;20649;-90
2023/08/25 12:53:21;;;;;;;6.63;4.40;;;16.30;99.90;;;;;;5050684;28;20226;-92
2023/08/25 12:55:54;;;;;;;6.60;4.15;;;16.30;99.90;;;;;;5054658;28;20319;-90
2023/08/25 12:58:25;;;;;;;6.68;4.50;;;16.20;99.90;;;;;;5045702;28;20239;-91
2023/08/25 13:00:56;;;;;;;6.90;4.25;;;16.20;99.90;;;;;;5057641;28;20664;-91
2023/08/25 13:03:28;;;;;;;7.55;4.30;;;16.20;99.90;;;;;;5060069;28;20231;-92
2023/08/25 13:06:02;;;;;;;5.25;3.67;;;16.20;99.90;;;;;;5062884;28;20243;-91
2023/08/25 13:08:34;;;;;;;7.60;3.88;;;16.20;99.90;;;;;;5072593;28;20208;-87
2023/08/25 13:11:08;;;;;;;7.03;3.80;;;16.10;99.90;;;;;;5075223;28;20279;-91
2023/08/25 13:13:44;;;;;;;7.10;3.90;;;16.20;99.90;;;;;;5069144;28;20223;-92
2023/08/25 13:16:15;;;;;;;6.10;4.00;;;16.10;99.90;;;;;;5033364;28;20287;-91
2023/08/25 13:18:48;;;;;;;6.05;4.05;;;16.10;99.90;;;;;;5034658;28;20284;-92
2023/08/25 13:21:19;;;;;;;8.57;4.35;;;16.10;99.90;;;;;;5029736;28;20193;-92
2023/08/25 13:23:52;;;;;;;4.93;4.05;;;16.00;99.90;;;;;;5037344;28;20205;-93
2023/08/25 13:26:25;;;;;;;6.10;4.10;;;16.00;99.90;;;;;;5035749;28;20197;-90